createdAt,value
2023-04-09T00:00:16.762Z,100.00
2023-04-09T00:03:04.477Z,100.00
2023-04-09T00:05:31.482Z,100.00
2023-04-09T00:07:59.399Z,100.00
2023-04-09T00:10:26.507Z,100.00
2023-04-09T00:12:54.015Z,100.00
2023-04-09T00:15:30.594Z,100.00
2023-04-09T00:17:59.247Z,100.00
2023-04-09T00:20:26.341Z,100.00
2023-04-09T00:22:54.213Z,100.00
2023-04-09T00:25:21.174Z,100.00
2023-04-09T00:27:48.469Z,100.00
2023-04-09T00:30:16.028Z,100.00
2023-04-09T00:32:46.369Z,100.00
2023-04-09T00:35:13.624Z,100.00
2023-04-09T00:37:41.233Z,100.00
2023-04-09T00:40:08.868Z,100.00
2023-04-09T00:42:37.535Z,100.00
2023-04-09T00:45:05.331Z,100.00
2023-04-09T00:47:35.662Z,100.00
2023-04-09T00:50:03.436Z,100.00
2023-04-09T00:52:31.181Z,100.00
2023-04-09T00:55:01.731Z,100.00
2023-04-09T00:57:29.495Z,100.00
2023-04-09T00:59:56.910Z,100.00
2023-04-09T01:02:24.719Z,100.00
2023-04-09T01:04:51.916Z,100.00
2023-04-09T01:07:38.172Z,100.00
2023-04-09T01:10:23.668Z,100.00
2023-04-09T01:13:12.092Z,100.00
2023-04-09T01:15:43.681Z,100.00
2023-04-09T01:18:13.889Z,100.00
2023-04-09T01:20:49.878Z,100.00
2023-04-09T01:23:29.729Z,100.00
2023-04-09T01:26:15.811Z,100.00
2023-04-09T01:28:53.992Z,100.00
2023-04-09T01:31:25.933Z,100.00
2023-04-09T01:33:53.698Z,100.00
2023-04-09T01:36:21.913Z,100.00
2023-04-09T01:38:51.699Z,100.00
2023-04-09T01:41:21.713Z,100.00
2023-04-09T01:43:51.010Z,100.00
2023-04-09T01:46:18.635Z,100.00
2023-04-09T01:48:47.137Z,100.00
2023-04-09T01:51:14.394Z,100.00
2023-04-09T01:53:43.567Z,100.00
2023-04-09T01:56:11.104Z,100.00
2023-04-09T01:58:38.911Z,100.00
2023-04-09T02:01:12.022Z,100.00
2023-04-09T02:04:00.694Z,100.00
2023-04-09T02:06:31.169Z,100.00
2023-04-09T02:09:00.754Z,100.00
2023-04-09T02:11:29.647Z,100.00
2023-04-09T02:13:58.395Z,100.00
2023-04-09T02:16:26.171Z,100.00
2023-04-09T02:18:55.099Z,100.00
2023-04-09T02:21:23.226Z,100.00
2023-04-09T02:23:51.707Z,100.00
2023-04-09T02:26:18.783Z,100.00
2023-04-09T02:28:46.183Z,100.00
2023-04-09T02:31:13.410Z,100.00
2023-04-09T02:33:41.017Z,100.00
2023-04-09T02:36:11.574Z,100.00
2023-04-09T02:38:42.816Z,100.00
2023-04-09T02:41:12.514Z,100.00
2023-04-09T02:43:40.022Z,100.00
2023-04-09T02:46:10.046Z,100.00
2023-04-09T02:48:37.564Z,100.00
2023-04-09T02:51:08.324Z,100.00
2023-04-09T02:53:37.845Z,100.00
2023-04-09T02:56:05.158Z,100.00
2023-04-09T02:58:32.653Z,100.00
2023-04-09T03:00:59.886Z,100.00
2023-04-09T03:03:27.417Z,100.00
2023-04-09T03:05:54.504Z,100.00
2023-04-09T03:08:22.480Z,100.00
2023-04-09T03:10:49.839Z,100.00
2023-04-09T03:13:17.548Z,100.00
2023-04-09T03:15:44.784Z,100.00
2023-04-09T03:18:12.494Z,100.00
2023-04-09T03:20:39.999Z,100.00
2023-04-09T03:23:10.675Z,100.00
2023-04-09T03:25:43.264Z,100.00
2023-04-09T03:28:17.085Z,100.00
2023-04-09T03:30:48.129Z,100.00
2023-04-09T03:33:16.214Z,100.00
2023-04-09T03:35:53.502Z,100.00
2023-04-09T03:38:33.904Z,100.00
2023-04-09T03:41:06.605Z,100.00
2023-04-09T03:43:38.873Z,100.00
2023-04-09T03:46:18.051Z,100.00
2023-04-09T03:48:48.309Z,100.00
2023-04-09T03:51:19.588Z,100.00
2023-04-09T03:53:54.541Z,100.00
2023-04-09T03:56:22.490Z,100.00
2023-04-09T03:58:50.839Z,100.00
2023-04-09T04:01:21.577Z,100.00
2023-04-09T04:03:55.869Z,100.00
2023-04-09T04:06:25.202Z,100.00
2023-04-09T04:09:04.542Z,100.00
2023-04-09T04:11:40.449Z,100.00
2023-04-09T04:14:10.207Z,100.00
2023-04-09T04:16:41.343Z,100.00
2023-04-09T04:19:09.994Z,100.00
2023-04-09T04:21:42.975Z,100.00
2023-04-09T04:24:12.861Z,100.00
2023-04-09T04:26:42.145Z,100.00
2023-04-09T04:29:12.403Z,100.00
2023-04-09T04:32:02.103Z,100.00
2023-04-09T04:34:35.488Z,100.00
2023-04-09T04:37:09.760Z,100.00
2023-04-09T04:39:38.597Z,100.00
2023-04-09T04:42:12.264Z,100.00
2023-04-09T04:44:40.163Z,100.00
2023-04-09T04:47:17.347Z,100.00
2023-04-09T04:49:45.851Z,100.00
2023-04-09T04:52:13.393Z,100.00
2023-04-09T04:54:44.668Z,100.00
2023-04-09T04:57:19.559Z,100.00
2023-04-09T04:59:47.332Z,100.00
2023-04-09T05:02:15.080Z,100.00
2023-04-09T05:05:08.666Z,100.00
2023-04-09T05:07:41.468Z,100.00
2023-04-09T05:10:09.732Z,100.00
2023-04-09T05:12:43.673Z,100.00
2023-04-09T05:15:13.370Z,100.00
2023-04-09T05:17:43.056Z,100.00
2023-04-09T05:20:11.697Z,100.00
2023-04-09T05:22:52.374Z,100.00
2023-04-09T05:25:26.632Z,100.00
2023-04-09T05:27:53.823Z,100.00
2023-04-09T05:30:21.791Z,100.00
2023-04-09T05:32:49.038Z,100.00
2023-04-09T05:35:17.338Z,100.00
2023-04-09T05:37:45.497Z,100.00
2023-04-09T05:40:16.436Z,100.00
2023-04-09T05:42:43.930Z,100.00
2023-04-09T05:45:21.716Z,100.00
2023-04-09T05:47:52.446Z,100.00
2023-04-09T05:50:22.831Z,100.00
2023-04-09T05:52:52.875Z,100.00
2023-04-09T05:55:22.233Z,100.00
2023-04-09T05:57:54.770Z,100.00
2023-04-09T06:00:22.847Z,100.00
2023-04-09T06:02:50.924Z,100.00
2023-04-09T06:05:18.384Z,100.00
2023-04-09T06:07:46.892Z,100.00
2023-04-09T06:10:14.947Z,100.00
2023-04-09T06:12:42.106Z,100.00
2023-04-09T06:15:10.372Z,100.00
2023-04-09T06:17:37.554Z,100.00
2023-04-09T06:20:05.211Z,100.00
2023-04-09T06:22:32.564Z,100.00
2023-04-09T06:25:02.018Z,100.00
2023-04-09T06:27:31.687Z,100.00
2023-04-09T06:29:59.183Z,100.00
2023-04-09T06:32:33.621Z,100.00
2023-04-09T06:35:05.422Z,100.00
2023-04-09T06:37:32.538Z,100.00
2023-04-09T06:40:01.376Z,100.00
2023-04-09T06:42:28.995Z,100.00
2023-04-09T06:45:11.070Z,100.00
2023-04-09T06:47:38.651Z,100.00
2023-04-09T06:50:09.084Z,100.00
2023-04-09T06:52:37.161Z,100.00
2023-04-09T06:55:05.212Z,100.00
2023-04-09T06:57:32.853Z,100.00
2023-04-09T07:00:00.547Z,100.00
2023-04-09T07:02:28.695Z,100.00
2023-04-09T07:04:59.298Z,100.00
2023-04-09T07:07:26.637Z,100.00
2023-04-09T07:09:54.165Z,100.00
2023-04-09T07:12:28.247Z,100.00
2023-04-09T07:15:00.259Z,100.00
2023-04-09T07:17:27.569Z,100.00
2023-04-09T07:19:55.406Z,100.00
2023-04-09T07:22:22.947Z,100.00
2023-04-09T07:24:54.471Z,100.00
2023-04-09T07:27:21.968Z,100.00
2023-04-09T07:29:49.403Z,100.00
2023-04-09T07:32:17.190Z,100.00
2023-04-09T07:34:44.678Z,100.00
2023-04-09T07:37:12.983Z,100.00
2023-04-09T07:39:40.642Z,100.00
2023-04-09T07:42:07.802Z,100.00
2023-04-09T07:44:36.578Z,100.00
2023-04-09T07:47:09.509Z,100.00
2023-04-09T07:49:37.670Z,100.00
2023-04-09T07:52:05.265Z,100.00
2023-04-09T07:54:33.194Z,100.00
2023-04-09T07:57:01.820Z,100.00
2023-04-09T07:59:29.759Z,100.00
2023-04-09T08:01:56.946Z,100.00
2023-04-09T08:04:24.757Z,100.00
2023-04-09T08:06:52.051Z,100.00
2023-04-09T08:09:20.039Z,100.00
2023-04-09T08:11:47.802Z,100.00
2023-04-09T08:14:16.053Z,100.00
2023-04-09T08:16:43.852Z,100.00
2023-04-09T08:19:11.428Z,100.00
2023-04-09T08:21:39.687Z,100.00
2023-04-09T08:24:11.672Z,100.00
2023-04-09T08:26:39.951Z,100.00
2023-04-09T08:29:07.975Z,100.00
2023-04-09T08:31:35.843Z,100.00
2023-04-09T08:34:03.537Z,100.00
2023-04-09T08:36:35.014Z,100.00
2023-04-09T08:39:02.744Z,100.00
2023-04-09T08:41:29.889Z,100.00
2023-04-09T08:43:59.511Z,100.00
2023-04-09T08:46:27.580Z,100.00
2023-04-09T08:48:55.850Z,100.00
2023-04-09T08:51:24.028Z,100.00
2023-04-09T08:53:54.357Z,100.00
2023-04-09T08:56:24.193Z,100.00
2023-04-09T08:58:51.857Z,100.00
2023-04-09T09:01:19.281Z,100.00
2023-04-09T09:04:16.308Z,100.00
2023-04-09T09:06:45.980Z,100.00
2023-04-09T09:09:18.996Z,100.00
2023-04-09T09:11:51.116Z,100.00
2023-04-09T09:14:20.954Z,100.00
2023-04-09T09:16:59.801Z,100.00
2023-04-09T09:19:27.604Z,100.00
2023-04-09T09:22:01.814Z,100.00
2023-04-09T09:24:29.736Z,100.00
2023-04-09T09:26:59.740Z,100.00
2023-04-09T09:29:28.338Z,100.00
2023-04-09T09:31:56.383Z,100.00
2023-04-09T09:34:24.514Z,100.00
2023-04-09T09:36:51.535Z,100.00
2023-04-09T09:39:19.007Z,100.00
2023-04-09T09:41:47.374Z,100.00
2023-04-09T09:44:31.021Z,100.00
2023-04-09T09:46:58.857Z,100.00
2023-04-09T09:49:26.203Z,100.00
2023-04-09T09:51:56.687Z,100.00
2023-04-09T09:54:25.732Z,100.00
2023-04-09T09:56:56.075Z,100.00
2023-04-09T09:59:23.982Z,100.00
2023-04-09T10:01:59.958Z,100.00
2023-04-09T10:04:29.410Z,100.00
2023-04-09T10:07:01.250Z,100.00
2023-04-09T10:09:28.615Z,100.00
2023-04-09T10:11:58.173Z,100.00
2023-04-09T10:14:27.521Z,100.00
2023-04-09T10:16:57.605Z,100.00
2023-04-09T10:19:27.240Z,100.00
2023-04-09T10:21:57.847Z,100.00
2023-04-09T10:24:25.478Z,100.00
2023-04-09T10:26:54.675Z,100.00
2023-04-09T10:29:27.828Z,100.00
2023-04-09T10:31:55.982Z,100.00
2023-04-09T10:34:24.692Z,100.00
2023-04-09T10:36:53.589Z,100.00
2023-04-09T10:39:21.169Z,100.00
2023-04-09T10:41:50.111Z,100.00
2023-04-09T10:44:24.845Z,100.00
2023-04-09T10:46:55.827Z,100.00
2023-04-09T10:49:27.113Z,100.00
2023-04-09T10:52:04.887Z,100.00
2023-04-09T10:54:35.233Z,100.00
2023-04-09T10:57:24.797Z,100.00
2023-04-09T10:59:53.699Z,100.00
2023-04-09T11:02:26.890Z,100.00
2023-04-09T11:04:57.636Z,100.00
2023-04-09T11:07:25.268Z,100.00
2023-04-09T11:09:53.450Z,100.00
2023-04-09T11:12:20.801Z,100.00
2023-04-09T11:14:48.167Z,100.00
2023-04-09T11:17:15.049Z,100.00
2023-04-09T11:19:42.381Z,100.00
2023-04-09T11:22:12.756Z,100.00
2023-04-09T11:24:40.799Z,100.00
2023-04-09T11:27:07.816Z,100.00
2023-04-09T11:29:35.532Z,100.00
2023-04-09T11:32:05.396Z,100.00
2023-04-09T11:34:32.775Z,98.90
2023-04-09T11:37:02.248Z,99.39
2023-04-09T11:39:29.580Z,99.73
2023-04-09T11:41:57.929Z,97.39
2023-04-09T11:44:25.361Z,94.31
2023-04-09T11:46:52.452Z,89.80
2023-04-09T11:49:19.994Z,88.30
2023-04-09T11:51:47.271Z,94.82
2023-04-09T11:54:14.819Z,86.65
2023-04-09T11:56:41.767Z,90.29
2023-04-09T11:59:09.035Z,83.37
2023-04-09T12:01:36.277Z,75.86
2023-04-09T12:04:03.957Z,79.05
2023-04-09T12:06:31.950Z,82.92
2023-04-09T12:08:59.571Z,82.00
2023-04-09T12:11:30.243Z,84.22
2023-04-09T12:14:04.707Z,80.80
2023-04-09T12:16:35.548Z,90.02
2023-04-09T12:19:11.444Z,92.88
2023-04-09T12:21:54.760Z,96.25
2023-04-09T12:24:29.031Z,94.84
2023-04-09T12:26:57.268Z,88.22
2023-04-09T12:29:26.269Z,97.78
2023-04-09T12:31:54.068Z,92.58
2023-04-09T12:34:21.447Z,93.84
2023-04-09T12:36:48.623Z,97.91
2023-04-09T12:39:16.111Z,100.00
2023-04-09T12:41:43.385Z,100.00
2023-04-09T12:44:10.652Z,99.08
2023-04-09T12:46:38.061Z,100.00
2023-04-09T12:49:06.332Z,96.10
2023-04-09T12:51:33.411Z,92.99
2023-04-09T12:54:00.634Z,100.00
2023-04-09T12:56:29.733Z,98.96
2023-04-09T12:58:57.087Z,95.65
2023-04-09T13:01:23.970Z,95.66
2023-04-09T13:03:51.436Z,96.47
2023-04-09T13:06:18.773Z,93.90
2023-04-09T13:08:46.183Z,93.20
2023-04-09T13:11:13.168Z,92.36
2023-04-09T13:13:42.579Z,92.02
2023-04-09T13:16:09.640Z,91.76
2023-04-09T13:18:37.509Z,92.93
2023-04-09T13:21:04.566Z,92.75
2023-04-09T13:23:31.852Z,91.87
2023-04-09T13:26:01.404Z,95.91
2023-04-09T13:28:28.628Z,85.19
2023-04-09T13:30:55.609Z,88.08
2023-04-09T13:33:23.110Z,82.69
2023-04-09T13:35:51.243Z,83.28
2023-04-09T13:38:20.033Z,85.95
2023-04-09T13:40:47.116Z,91.49
2023-04-09T13:43:14.444Z,88.95
2023-04-09T13:45:41.524Z,83.89
2023-04-09T13:48:08.812Z,83.64
2023-04-09T13:50:35.723Z,88.96
2023-04-09T13:53:05.343Z,81.62
2023-04-09T13:55:34.925Z,77.87
2023-04-09T13:58:04.837Z,78.78
2023-04-09T14:00:36.173Z,80.19
2023-04-09T14:03:03.805Z,79.65
2023-04-09T14:05:32.377Z,78.91
2023-04-09T14:07:59.731Z,82.96
2023-04-09T14:10:27.689Z,88.55
2023-04-09T14:12:54.873Z,83.29
2023-04-09T14:15:22.231Z,76.97
2023-04-09T14:17:49.504Z,78.80
2023-04-09T14:20:16.650Z,83.39
2023-04-09T14:22:49.121Z,88.44
2023-04-09T14:25:16.524Z,89.12
2023-04-09T14:27:46.448Z,90.53
2023-04-09T14:30:15.899Z,92.85
2023-04-09T14:32:45.962Z,92.15
2023-04-09T14:35:12.918Z,96.09
2023-04-09T14:37:41.091Z,93.93
2023-04-09T14:40:08.473Z,92.18
2023-04-09T14:42:35.772Z,94.18
2023-04-09T14:45:05.183Z,95.20
2023-04-09T14:47:32.626Z,95.66
2023-04-09T14:50:01.884Z,99.33
2023-04-09T14:52:30.628Z,95.70
2023-04-09T14:54:57.625Z,98.75
2023-04-09T14:57:24.991Z,96.00
2023-04-09T14:59:54.263Z,94.23
2023-04-09T15:02:21.822Z,100.00
2023-04-09T15:04:48.938Z,96.29
2023-04-09T15:07:18.591Z,93.76
2023-04-09T15:09:45.690Z,94.69
2023-04-09T15:12:12.936Z,93.06
2023-04-09T15:14:42.285Z,98.94
2023-04-09T15:17:09.629Z,92.43
2023-04-09T15:19:36.664Z,93.22
2023-04-09T15:22:04.029Z,93.90
2023-04-09T15:24:31.395Z,92.92
2023-04-09T15:26:58.817Z,91.98
2023-04-09T15:29:25.991Z,91.97
2023-04-09T15:31:53.388Z,93.36
2023-04-09T15:34:20.622Z,91.32
2023-04-09T15:36:47.978Z,93.69
2023-04-09T15:39:15.143Z,96.49
2023-04-09T15:41:42.405Z,96.20
2023-04-09T15:44:09.452Z,94.13
2023-04-09T15:46:37.957Z,95.71
2023-04-09T15:49:05.025Z,93.10
2023-04-09T15:51:32.294Z,91.47
2023-04-09T15:53:59.403Z,95.50
2023-04-09T15:56:26.772Z,100.00
2023-04-09T15:58:53.925Z,100.00
2023-04-09T16:01:21.386Z,100.00
2023-04-09T16:03:52.184Z,100.00
2023-04-09T16:06:19.749Z,100.00
2023-04-09T16:08:46.736Z,100.00
2023-04-09T16:11:13.997Z,100.00
2023-04-09T16:13:41.293Z,100.00
2023-04-09T16:16:08.856Z,100.00
2023-04-09T16:18:38.324Z,100.00
2023-04-09T16:21:05.761Z,100.00
2023-04-09T16:23:33.154Z,100.00
2023-04-09T16:26:00.779Z,100.00
2023-04-09T16:28:27.779Z,100.00
2023-04-09T16:30:54.989Z,100.00
2023-04-09T16:33:21.938Z,100.00
2023-04-09T16:35:49.269Z,100.00
2023-04-09T16:38:16.306Z,100.00
2023-04-09T16:40:43.929Z,100.00
2023-04-09T16:43:11.527Z,100.00
2023-04-09T16:45:41.293Z,100.00
2023-04-09T16:48:12.483Z,100.00
2023-04-09T16:50:40.499Z,100.00
2023-04-09T16:53:07.923Z,100.00
2023-04-09T16:55:35.280Z,100.00
2023-04-09T16:58:02.811Z,100.00
2023-04-09T17:00:30.526Z,100.00
2023-04-09T17:02:58.141Z,100.00
2023-04-09T17:05:26.893Z,100.00
2023-04-09T17:07:53.932Z,100.00
2023-04-09T17:10:22.630Z,100.00
2023-04-09T17:12:50.903Z,100.00
2023-04-09T17:15:18.495Z,100.00
2023-04-09T17:17:47.926Z,100.00
2023-04-09T17:20:15.608Z,100.00
2023-04-09T17:22:43.797Z,100.00
2023-04-09T17:25:11.652Z,100.00
2023-04-09T17:27:39.464Z,100.00
2023-04-09T17:30:09.567Z,100.00
2023-04-09T17:32:39.482Z,100.00
2023-04-09T17:35:07.797Z,100.00
2023-04-09T17:37:35.215Z,100.00
2023-04-09T17:40:03.741Z,100.00
2023-04-09T17:42:31.546Z,100.00
2023-04-09T17:45:02.010Z,100.00
2023-04-09T17:47:29.079Z,100.00
2023-04-09T17:49:56.873Z,100.00
2023-04-09T17:52:25.067Z,100.00
2023-04-09T17:54:55.670Z,100.00
2023-04-09T17:57:23.764Z,100.00
2023-04-09T17:59:55.633Z,100.00
2023-04-09T18:02:23.676Z,100.00
2023-04-09T18:04:51.765Z,100.00
2023-04-09T18:07:19.199Z,100.00
2023-04-09T18:09:53.729Z,100.00
2023-04-09T18:12:22.064Z,100.00
2023-04-09T18:14:50.685Z,100.00
2023-04-09T18:17:19.376Z,100.00
2023-04-09T18:19:47.347Z,100.00
2023-04-09T18:22:14.478Z,100.00
2023-04-09T18:24:42.356Z,100.00
2023-04-09T18:27:10.587Z,100.00
2023-04-09T18:29:38.459Z,100.00
2023-04-09T18:32:06.782Z,100.00
2023-04-09T18:34:37.723Z,100.00
2023-04-09T18:37:09.215Z,100.00
2023-04-09T18:39:37.653Z,100.00
2023-04-09T18:42:10.433Z,100.00
2023-04-09T18:44:45.995Z,100.00
2023-04-09T18:47:16.787Z,100.00
2023-04-09T18:49:44.675Z,100.00
2023-04-09T18:52:12.326Z,100.00
2023-04-09T18:54:42.245Z,100.00
2023-04-09T18:57:09.758Z,100.00
2023-04-09T18:59:40.444Z,100.00
2023-04-09T19:02:09.215Z,100.00
2023-04-09T19:04:42.201Z,100.00
2023-04-09T19:07:12.751Z,100.00
2023-04-09T19:09:45.834Z,100.00
2023-04-09T19:12:15.790Z,100.00
2023-04-09T19:14:44.304Z,100.00
2023-04-09T19:17:12.663Z,100.00
2023-04-09T19:19:42.010Z,100.00
2023-04-09T19:22:09.665Z,100.00
2023-04-09T19:24:38.300Z,100.00
2023-04-09T19:27:10.132Z,100.00
2023-04-09T19:29:38.313Z,100.00
2023-04-09T19:32:09.008Z,100.00
2023-04-09T19:34:37.511Z,100.00
2023-04-09T19:37:06.027Z,100.00
2023-04-09T19:39:33.378Z,100.00
2023-04-09T19:42:01.106Z,100.00
2023-04-09T19:44:30.229Z,100.00
2023-04-09T19:46:57.678Z,100.00
2023-04-09T19:49:27.371Z,100.00
2023-04-09T19:51:55.463Z,100.00
2023-04-09T19:54:23.197Z,100.00
2023-04-09T19:56:52.912Z,100.00
2023-04-09T19:59:20.443Z,100.00
2023-04-09T20:01:50.962Z,100.00
2023-04-09T20:04:25.142Z,100.00
2023-04-09T20:06:55.688Z,100.00
2023-04-09T20:09:31.530Z,100.00
2023-04-09T20:12:04.501Z,100.00
2023-04-09T20:14:32.251Z,100.00
2023-04-09T20:17:00.496Z,100.00
2023-04-09T20:19:28.112Z,100.00
2023-04-09T20:21:56.208Z,100.00
2023-04-09T20:24:26.757Z,100.00
2023-04-09T20:26:57.252Z,100.00
2023-04-09T20:29:26.355Z,100.00
2023-04-09T20:31:55.000Z,100.00
2023-04-09T20:34:26.844Z,100.00
2023-04-09T20:36:56.731Z,100.00
2023-04-09T20:39:30.593Z,100.00
2023-04-09T20:41:58.769Z,100.00
2023-04-09T20:44:27.614Z,100.00
2023-04-09T20:46:59.877Z,100.00
2023-04-09T20:49:28.568Z,100.00
2023-04-09T20:51:59.479Z,100.00
2023-04-09T20:54:32.092Z,100.00
2023-04-09T20:57:02.839Z,100.00
2023-04-09T20:59:30.606Z,100.00
2023-04-09T21:01:59.129Z,100.00
2023-04-09T21:04:29.302Z,100.00
2023-04-09T21:06:59.186Z,100.00
2023-04-09T21:09:29.933Z,100.00
2023-04-09T21:11:59.513Z,100.00
2023-04-09T21:14:26.794Z,100.00
2023-04-09T21:16:56.386Z,100.00
2023-04-09T21:19:25.894Z,100.00
2023-04-09T21:21:56.306Z,100.00
2023-04-09T21:24:26.988Z,100.00
2023-04-09T21:26:55.116Z,100.00
2023-04-09T21:29:23.797Z,100.00
2023-04-09T21:31:55.212Z,100.00
2023-04-09T21:34:23.306Z,100.00
2023-04-09T21:36:51.515Z,100.00
2023-04-09T21:39:19.598Z,100.00
2023-04-09T21:41:47.876Z,100.00
2023-04-09T21:44:16.313Z,100.00
2023-04-09T21:46:45.286Z,100.00
2023-04-09T21:49:15.891Z,100.00
2023-04-09T21:51:48.026Z,100.00
2023-04-09T21:54:16.576Z,100.00
2023-04-09T21:56:44.129Z,100.00
2023-04-09T21:59:13.926Z,100.00
2023-04-09T22:01:42.360Z,100.00
2023-04-09T22:04:10.522Z,100.00
2023-04-09T22:06:38.074Z,100.00
2023-04-09T22:09:05.968Z,100.00
2023-04-09T22:11:34.568Z,100.00
2023-04-09T22:14:03.520Z,100.00
2023-04-09T22:16:33.588Z,100.00
2023-04-09T22:19:03.120Z,100.00
2023-04-09T22:21:32.043Z,100.00
2023-04-09T22:24:01.819Z,100.00
2023-04-09T22:26:29.444Z,100.00
2023-04-09T22:28:58.321Z,100.00
2023-04-09T22:31:30.466Z,100.00
2023-04-09T22:34:09.954Z,100.00
2023-04-09T22:36:42.181Z,100.00
2023-04-09T22:39:09.630Z,100.00
2023-04-09T22:41:39.482Z,100.00
2023-04-09T22:44:19.162Z,100.00
2023-04-09T22:46:49.367Z,100.00
2023-04-09T22:49:20.934Z,100.00
2023-04-09T22:51:49.593Z,100.00
2023-04-09T22:54:17.089Z,100.00
2023-04-09T22:56:45.849Z,100.00
2023-04-09T22:59:13.227Z,100.00
2023-04-09T23:01:49.639Z,100.00
2023-04-09T23:04:24.166Z,100.00
2023-04-09T23:06:52.329Z,100.00
2023-04-09T23:09:19.853Z,100.00
2023-04-09T23:11:49.945Z,100.00
2023-04-09T23:14:20.960Z,100.00
2023-04-09T23:16:50.220Z,100.00
2023-04-09T23:19:18.693Z,100.00
2023-04-09T23:21:46.451Z,100.00
2023-04-09T23:24:16.199Z,100.00
2023-04-09T23:26:43.946Z,100.00
2023-04-09T23:29:12.322Z,100.00
2023-04-09T23:31:42.607Z,100.00
2023-04-09T23:34:11.797Z,100.00
2023-04-09T23:36:41.481Z,100.00
2023-04-09T23:39:10.476Z,100.00
2023-04-09T23:41:44.084Z,100.00
2023-04-09T23:44:16.484Z,100.00
2023-04-09T23:46:44.460Z,100.00
2023-04-09T23:49:25.434Z,100.00
2023-04-09T23:51:53.475Z,100.00
2023-04-09T23:54:21.576Z,100.00
2023-04-09T23:56:50.169Z,100.00
2023-04-09T23:59:35.441Z,100.00
